sensor_id;sensor_type;location;lat;lon;timestamp;pressure;altitude;pressure_sealevel;temperature;humidity
50322;BME280;36227;53.366;-1.426;2023-04-26T00:01:24;76639.86;;;-214.20;86.73
50322;BME280;36227;53.366;-1.426;2023-04-26T00:03:50;76637.08;;;-214.43;86.66
50322;BME280;36227;53.366;-1.426;2023-04-26T00:06:15;76645.80;;;-213.96;86.31
50322;BME280;36227;53.366;-1.426;2023-04-26T00:08:40;76600.31;;;-213.96;85.04
50322;BME280;36227;53.366;-1.426;2023-04-26T00:11:06;76568.97;;;-213.96;82.66
50322;BME280;36227;53.366;-1.426;2023-04-26T00:13:31;76527.78;;;-213.96;81.53
50322;BME280;36227;53.366;-1.426;2023-04-26T00:15:56;76544.71;;;-213.96;82.20
50322;BME280;36227;53.366;-1.426;2023-04-26T00:18:23;76556.34;;;-213.96;81.97
50322;BME280;36227;53.366;-1.426;2023-04-26T00:20:47;76523.61;;;-213.96;81.03
50322;BME280;36227;53.366;-1.426;2023-04-26T00:23:13;76570.11;;;-214.20;81.03
50322;BME280;36227;53.366;-1.426;2023-04-26T00:25:38;76527.78;;;-214.91;81.09
50322;BME280;36227;53.366;-1.426;2023-04-26T00:28:04;76535.99;;;-214.20;79.95
50322;BME280;36227;53.366;-1.426;2023-04-26T00:30:29;76451.46;;;-214.43;77.69
50322;BME280;36227;53.366;-1.426;2023-04-26T00:32:54;76471.68;;;-213.96;77.33
50322;BME280;36227;53.366;-1.426;2023-04-26T00:35:20;76543.57;;;-213.96;80.76
50322;BME280;36227;53.366;-1.426;2023-04-26T00:37:45;76561.77;;;-213.96;82.94
50322;BME280;36227;53.366;-1.426;2023-04-26T00:40:11;76555.20;;;-213.48;82.29
50322;BME280;36227;53.366;-1.426;2023-04-26T00:42:36;76609.91;;;-213.48;84.69
50322;BME280;36227;53.366;-1.426;2023-04-26T00:45:01;76624.57;;;-213.96;86.62
50322;BME280;36227;53.366;-1.426;2023-04-26T00:47:26;76613.96;;;-213.96;87.83
50322;BME280;36227;53.366;-1.426;2023-04-26T00:49:51;76632.66;;;-213.48;86.95
50322;BME280;36227;53.366;-1.426;2023-04-26T00:52:17;76594.37;;;-213.48;86.97
50322;BME280;36227;53.366;-1.426;2023-04-26T00:54:42;76582.37;;;-213.48;86.09
50322;BME280;36227;53.366;-1.426;2023-04-26T00:57:08;76548.25;;;-213.48;85.06
50322;BME280;36227;53.366;-1.426;2023-04-26T00:59:33;76488.61;;;-213.96;83.31
50322;BME280;36227;53.366;-1.426;2023-04-26T01:01:58;76499.98;;;-213.96;81.77
50322;BME280;36227;53.366;-1.426;2023-04-26T01:09:15;76374.26;;;-214.91;76.77
50322;BME280;36227;53.366;-1.426;2023-04-26T01:52:52;76367.44;;;-214.91;78.75
50322;BME280;36227;53.366;-1.426;2023-04-26T01:55:17;76335.97;;;-215.63;76.68
50322;BME280;36227;53.366;-1.426;2023-04-26T01:57:42;76398.77;;;-215.15;76.92
50322;BME280;36227;53.366;-1.426;2023-04-26T02:00:09;76297.18;;;-215.39;75.82
50322;BME280;36227;53.366;-1.426;2023-04-26T02:02:33;76225.80;;;-215.39;72.16
50322;BME280;36227;53.366;-1.426;2023-04-26T02:04:58;76328.14;;;-215.15;74.94
50322;BME280;36227;53.366;-1.426;2023-04-26T02:07:23;76217.08;;;-214.91;71.87
50322;BME280;36227;53.366;-1.426;2023-04-26T02:09:49;76318.03;;;-215.15;72.26
50322;BME280;36227;53.366;-1.426;2023-04-26T02:12:15;76242.10;;;-214.91;71.98
50322;BME280;36227;53.366;-1.426;2023-04-26T02:14:42;76269.51;;;-215.39;72.86
50322;BME280;36227;53.366;-1.426;2023-04-26T02:17:06;76204.07;;;-215.87;71.14
50322;BME280;36227;53.366;-1.426;2023-04-26T02:19:31;76216.57;;;-215.63;69.51
50322;BME280;36227;53.366;-1.426;2023-04-26T02:21:56;76260.92;;;-215.39;71.00
50322;BME280;36227;53.366;-1.426;2023-04-26T02:24:21;76271.28;;;-215.15;72.10
50322;BME280;36227;53.366;-1.426;2023-04-26T02:26:46;76276.34;;;-214.91;72.82
50322;BME280;36227;53.366;-1.426;2023-04-26T02:29:12;76287.58;;;-214.91;73.28
50322;BME280;36227;53.366;-1.426;2023-04-26T02:31:38;76303.00;;;-214.91;73.84
50322;BME280;36227;53.366;-1.426;2023-04-26T02:34:03;76301.86;;;-214.91;74.34
50322;BME280;36227;53.366;-1.426;2023-04-26T02:36:29;76311.84;;;-214.91;74.48
50322;BME280;36227;53.366;-1.426;2023-04-26T02:38:55;76391.06;;;-215.15;76.79
50322;BME280;36227;53.366;-1.426;2023-04-26T02:41:20;76386.52;;;-215.39;77.77
50322;BME280;36227;53.366;-1.426;2023-04-26T02:43:45;76366.93;;;-214.67;77.58
50322;BME280;36227;53.366;-1.426;2023-04-26T02:46:10;76388.03;;;-214.67;77.71
50322;BME280;36227;53.366;-1.426;2023-04-26T02:48:36;76377.80;;;-214.43;79.36
50322;BME280;36227;53.366;-1.426;2023-04-26T02:51:01;76367.69;;;-214.67;77.94
50322;BME280;36227;53.366;-1.426;2023-04-26T02:53:27;76359.48;;;-214.91;79.23
50322;BME280;36227;53.366;-1.426;2023-04-26T02:55:52;76396.50;;;-214.91;77.18
50322;BME280;36227;53.366;-1.426;2023-04-26T02:58:18;76368.95;;;-214.91;76.80
50322;BME280;36227;53.366;-1.426;2023-04-26T03:00:46;76368.07;;;-215.15;78.96
50322;BME280;36227;53.366;-1.426;2023-04-26T03:03:08;76273.05;;;-215.15;75.46
50322;BME280;36227;53.366;-1.426;2023-04-26T03:05:34;76258.02;;;-215.15;73.70
50322;BME280;36227;53.366;-1.426;2023-04-26T03:07:59;76234.52;;;-215.15;72.83
50322;BME280;36227;53.366;-1.426;2023-04-26T03:10:24;76246.39;;;-215.39;72.76
50322;BME280;36227;53.366;-1.426;2023-04-26T03:12:49;76198.63;;;-215.15;71.76
50322;BME280;36227;53.366;-1.426;2023-04-26T03:15:26;76246.27;;;-215.39;71.65
50322;BME280;36227;53.366;-1.426;2023-04-26T03:17:42;76268.12;;;-215.15;73.30
50322;BME280;36227;53.366;-1.426;2023-04-26T03:20:08;76258.02;;;-215.15;73.41
50322;BME280;36227;53.366;-1.426;2023-04-26T03:22:32;76243.36;;;-215.63;73.25
50322;BME280;36227;53.366;-1.426;2023-04-26T03:24:58;76258.77;;;-215.39;73.81
50322;BME280;36227;53.366;-1.426;2023-04-26T03:27:24;76297.69;;;-214.91;75.27
50322;BME280;36227;53.366;-1.426;2023-04-26T03:29:50;76263.45;;;-215.15;75.39
50322;BME280;36227;53.366;-1.426;2023-04-26T03:32:15;76212.78;;;-214.91;72.03
50322;BME280;36227;53.366;-1.426;2023-04-26T03:34:40;76271.03;;;-214.91;72.88
50322;BME280;36227;53.366;-1.426;2023-04-26T03:39:32;76462.83;;;-214.67;78.27
50322;BME280;36227;53.366;-1.426;2023-04-26T03:41:57;76317.15;;;-214.67;75.63
50322;BME280;36227;53.366;-1.426;2023-04-26T03:44:22;76419.11;;;-215.39;76.55
50322;BME280;36227;53.366;-1.426;2023-04-26T03:46:52;76322.45;;;-215.15;77.19
50322;BME280;36227;53.366;-1.426;2023-04-26T03:49:13;76280.13;;;-214.91;74.86
50322;BME280;36227;53.366;-1.426;2023-04-26T03:51:37;76272.55;;;-214.91;73.81
50322;BME280;36227;53.366;-1.426;2023-04-26T03:54:04;76356.44;;;-214.91;74.91
50322;BME280;36227;53.366;-1.426;2023-04-26T03:56:29;76295.16;;;-214.67;74.41
50322;BME280;36227;53.366;-1.426;2023-04-26T04:01:19;76287.08;;;-214.91;74.71
50322;BME280;36227;53.366;-1.426;2023-04-26T04:03:46;76373.50;;;-215.15;73.94
50322;BME280;36227;53.366;-1.426;2023-04-26T04:06:10;76301.48;;;-215.87;75.53
50322;BME280;36227;53.366;-1.426;2023-04-26T04:08:42;76366.43;;;-214.91;76.40
50322;BME280;36227;53.366;-1.426;2023-04-26T04:11:15;76425.56;;;-214.43;78.73
50322;BME280;36227;53.366;-1.426;2023-04-26T05:21:25;76784.42;;;-213.24;100.00
50322;BME280;36227;53.366;-1.426;2023-04-26T06:00:09;76732.61;;;-213.00;100.00
50322;BME280;36227;53.366;-1.426;2023-04-26T06:02:34;76749.92;;;-213.00;100.00
50322;BME280;36227;53.366;-1.426;2023-04-26T06:07:24;76750.43;;;-212.52;100.00
50322;BME280;36227;53.366;-1.426;2023-04-26T06:09:49;76725.66;;;-212.76;100.00
50322;BME280;36227;53.366;-1.426;2023-04-26T06:12:15;76733.49;;;-212.52;100.00
50322;BME280;36227;53.366;-1.426;2023-04-26T06:14:40;76721.74;;;-213.00;100.00
50322;BME280;36227;53.366;-1.426;2023-04-26T06:17:05;76720.48;;;-213.48;100.00
50322;BME280;36227;53.366;-1.426;2023-04-26T06:19:30;76686.74;;;-213.00;100.00
50322;BME280;36227;53.366;-1.426;2023-04-26T06:21:55;76689.65;;;-213.00;100.00
50322;BME280;36227;53.366;-1.426;2023-04-26T06:24:21;76689.65;;;-213.00;100.00
50322;BME280;36227;53.366;-1.426;2023-04-26T06:26:45;76742.72;;;-212.52;100.00
50322;BME280;36227;53.366;-1.426;2023-04-26T06:29:11;76737.41;;;-212.76;100.00
50322;BME280;36227;53.366;-1.426;2023-04-26T06:31:43;76719.34;;;-212.52;100.00
50322;BME280;36227;53.366;-1.426;2023-04-26T06:36:29;76625.96;;;-213.48;100.00
50322;BME280;36227;53.366;-1.426;2023-04-26T06:38:54;76525.51;;;-214.43;94.24
50322;BME280;36227;53.366;-1.426;2023-04-26T06:41:19;76454.87;;;-214.43;88.93
50322;BME280;36227;53.366;-1.426;2023-04-26T06:43:45;76378.43;;;-214.67;85.08
50322;BME280;36227;53.366;-1.426;2023-04-26T06:46:11;76357.20;;;-214.91;81.44
50322;BME280;36227;53.366;-1.426;2023-04-26T06:48:36;76310.45;;;-214.43;79.66
50322;BME280;36227;53.366;-1.426;2023-04-26T06:51:05;76313.99;;;-214.91;78.69
50322;BME280;36227;53.366;-1.426;2023-04-26T06:53:28;76261.18;;;-214.91;75.44
50322;BME280;36227;53.366;-1.426;2023-04-26T06:55:53;76420.38;;;-214.20;78.40
50322;BME280;36227;53.366;-1.426;2023-04-26T06:58:19;76474.46;;;-214.20;86.53
50322;BME280;36227;53.366;-1.426;2023-04-26T07:00:44;76413.81;;;-215.15;86.93
50322;BME280;36227;53.366;-1.426;2023-04-26T07:03:10;76577.57;;;-214.43;95.21
50322;BME280;36227;53.366;-1.426;2023-04-26T07:05:35;76643.40;;;-214.43;100.00
50322;BME280;36227;53.366;-1.426;2023-04-26T07:08:01;76452.60;;;-214.67;97.43
50322;BME280;36227;53.366;-1.426;2023-04-26T07:10:26;76492.91;;;-214.91;98.34
50322;BME280;36227;53.366;-1.426;2023-04-26T07:12:52;76387.78;;;-214.91;95.55
50322;BME280;36227;53.366;-1.426;2023-04-26T07:15:18;76212.28;;;-215.15;87.90
50322;BME280;36227;53.366;-1.426;2023-04-26T07:17:43;76396.62;;;-215.15;90.97
50322;BME280;36227;53.366;-1.426;2023-04-26T07:20:10;76251.57;;;-215.39;87.73
50322;BME280;36227;53.366;-1.426;2023-04-26T07:22:35;76400.67;;;-214.91;81.45
50322;BME280;36227;53.366;-1.426;2023-04-26T07:25:00;76477.62;;;-214.20;83.90
50322;BME280;36227;53.366;-1.426;2023-04-26T07:27:25;76394.60;;;-214.43;84.29
50322;BME280;36227;53.366;-1.426;2023-04-26T07:29:53;76373.25;;;-214.91;81.80
50322;BME280;36227;53.366;-1.426;2023-04-26T07:32:16;76246.77;;;-214.91;77.82
50322;BME280;36227;53.366;-1.426;2023-04-26T07:34:42;76252.20;;;-214.91;74.83
50322;BME280;36227;53.366;-1.426;2023-04-26T07:37:07;76427.58;;;-214.20;80.68
50322;BME280;36227;53.366;-1.426;2023-04-26T07:39:32;76369.84;;;-214.20;82.12
50322;BME280;36227;53.366;-1.426;2023-04-26T07:41:59;76350.88;;;-214.43;80.24
50322;BME280;36227;53.366;-1.426;2023-04-26T07:44:24;76305.78;;;-215.39;81.06
50322;BME280;36227;53.366;-1.426;2023-04-26T07:46:49;76321.57;;;-214.91;81.03
50322;BME280;36227;53.366;-1.426;2023-04-26T07:49:15;76393.72;;;-214.20;84.37
50322;BME280;36227;53.366;-1.426;2023-04-26T07:51:43;76405.47;;;-214.43;84.49
50322;BME280;36227;53.366;-1.426;2023-04-26T07:54:07;76387.40;;;-214.43;84.33
50322;BME280;36227;53.366;-1.426;2023-04-26T07:56:32;76440.34;;;-213.96;88.09
50322;BME280;36227;53.366;-1.426;2023-04-26T07:58:58;76474.58;;;-213.96;89.37
50322;BME280;36227;53.366;-1.426;2023-04-26T08:01:25;76488.99;;;-213.72;90.98
50322;BME280;36227;53.366;-1.426;2023-04-26T08:03:50;76452.47;;;-214.43;92.43
50322;BME280;36227;53.366;-1.426;2023-04-26T08:06:15;76396.12;;;-214.43;87.51
50322;BME280;36227;53.366;-1.426;2023-04-26T08:08:41;76451.46;;;-214.20;87.70
50322;BME280;36227;53.366;-1.426;2023-04-26T08:11:07;76537.51;;;-213.48;91.60
50322;BME280;36227;53.366;-1.426;2023-04-26T08:13:32;76513.63;;;-213.48;96.15
50322;BME280;36227;53.366;-1.426;2023-04-26T08:15:58;76535.87;;;-213.48;97.46
50322;BME280;36227;53.366;-1.426;2023-04-26T08:18:23;76485.58;;;-213.48;97.32
50322;BME280;36227;53.366;-1.426;2023-04-26T08:20:48;76464.98;;;-213.72;95.53
50322;BME280;36227;53.366;-1.426;2023-04-26T08:23:14;76441.61;;;-213.96;94.73
50322;BME280;36227;53.366;-1.426;2023-04-26T08:25:40;76477.62;;;-214.20;93.21
50322;BME280;36227;53.366;-1.426;2023-04-26T08:28:05;76402.06;;;-214.43;92.40
50322;BME280;36227;53.366;-1.426;2023-04-26T08:30:31;76286.57;;;-214.91;86.88
50322;BME280;36227;53.366;-1.426;2023-04-26T08:32:56;76320.18;;;-214.43;82.21
50322;BME280;36227;53.366;-1.426;2023-04-26T08:35:22;76415.32;;;-213.72;84.06
50322;BME280;36227;53.366;-1.426;2023-04-26T08:37:47;76430.99;;;-213.96;84.63
50322;BME280;36227;53.366;-1.426;2023-04-26T08:40:13;76367.94;;;-213.96;83.80
50322;BME280;36227;53.366;-1.426;2023-04-26T08:42:40;76413.93;;;-213.48;83.80
50322;BME280;36227;53.366;-1.426;2023-04-26T08:45:03;76421.64;;;-213.48;85.83
50322;BME280;36227;53.366;-1.426;2023-04-26T08:47:33;76413.30;;;-214.20;86.58
50322;BME280;36227;53.366;-1.426;2023-04-26T08:49:55;76410.90;;;-213.96;84.85
50322;BME280;36227;53.366;-1.426;2023-04-26T08:52:20;76375.90;;;-213.96;84.13
50322;BME280;36227;53.366;-1.426;2023-04-26T08:54:46;76242.48;;;-214.67;81.48
50322;BME280;36227;53.366;-1.426;2023-04-26T08:57:11;76209.50;;;-214.43;79.01
50322;BME280;36227;53.366;-1.426;2023-04-26T08:59:37;76244.88;;;-214.43;79.41
50322;BME280;36227;53.366;-1.426;2023-04-26T09:02:03;76368.70;;;-213.96;77.08
50322;BME280;36227;53.366;-1.426;2023-04-26T09:04:27;76445.52;;;-213.48;76.99
50322;BME280;36227;53.366;-1.426;2023-04-26T09:06:53;76459.04;;;-213.48;76.76
50322;BME280;36227;53.366;-1.426;2023-04-26T09:09:18;76438.07;;;-213.96;77.69
50322;BME280;36227;53.366;-1.426;2023-04-26T09:11:53;76421.89;;;-213.72;77.97
50322;BME280;36227;53.366;-1.426;2023-04-26T09:14:10;76460.81;;;-213.48;78.33
50322;BME280;36227;53.366;-1.426;2023-04-26T09:16:35;76415.83;;;-213.48;77.42
50322;BME280;36227;53.366;-1.426;2023-04-26T09:19:00;76369.08;;;-213.96;77.58
50322;BME280;36227;53.366;-1.426;2023-04-26T09:21:25;76331.68;;;-213.96;76.64
50322;BME280;36227;53.366;-1.426;2023-04-26T09:23:56;76276.34;;;-214.20;74.00
50322;BME280;36227;53.366;-1.426;2023-04-26T09:26:16;76262.44;;;-214.43;72.42
50322;BME280;36227;53.366;-1.426;2023-04-26T09:28:41;76246.52;;;-214.43;71.04
50322;BME280;36227;53.366;-1.426;2023-04-26T09:31:07;76209.88;;;-214.91;72.43
50322;BME280;36227;53.366;-1.426;2023-04-26T09:33:31;76257.89;;;-214.43;71.03
50322;BME280;36227;53.366;-1.426;2023-04-26T12:46:03;75955.42;;;-216.83;41.23
50322;BME280;36227;53.366;-1.426;2023-04-26T12:48:28;75968.31;;;-216.83;42.27
50322;BME280;36227;53.366;-1.426;2023-04-26T12:50:53;75910.07;;;-217.30;41.32
50322;BME280;36227;53.366;-1.426;2023-04-26T12:53:18;75896.55;;;-217.30;39.79
50322;BME280;36227;53.366;-1.426;2023-04-26T12:55:43;75936.60;;;-217.30;42.31
50322;BME280;36227;53.366;-1.426;2023-04-26T12:58:08;75820.62;;;-217.78;39.99
50322;BME280;36227;53.366;-1.426;2023-04-26T13:00:33;75898.06;;;-217.07;40.67
50322;BME280;36227;53.366;-1.426;2023-04-26T13:02:58;75945.57;;;-217.30;42.64
50322;BME280;36227;53.366;-1.426;2023-04-26T13:05:24;75932.05;;;-217.30;41.53
50322;BME280;36227;53.366;-1.426;2023-04-26T13:07:48;75904.13;;;-217.30;42.10
50322;BME280;36227;53.366;-1.426;2023-04-26T13:10:13;75919.16;;;-217.07;41.83
50322;BME280;36227;53.366;-1.426;2023-04-26T13:12:38;75968.69;;;-216.83;41.85
50322;BME280;36227;53.366;-1.426;2023-04-26T13:15:04;75970.46;;;-216.83;42.21
50322;BME280;36227;53.366;-1.426;2023-04-26T13:17:29;75931.17;;;-216.83;41.07
50322;BME280;36227;53.366;-1.426;2023-04-26T13:19:54;75978.29;;;-216.83;42.38
50322;BME280;36227;53.366;-1.426;2023-04-26T13:22:19;75877.22;;;-217.07;39.56
50322;BME280;36227;53.366;-1.426;2023-04-26T13:24:44;75969.07;;;-216.83;40.82
50322;BME280;36227;53.366;-1.426;2023-04-26T13:27:09;75912.34;;;-217.30;40.71
50322;BME280;36227;53.366;-1.426;2023-04-26T13:29:34;75953.15;;;-217.07;42.41
50322;BME280;36227;53.366;-1.426;2023-04-26T13:32:00;75904.89;;;-216.35;41.20
50322;BME280;36227;53.366;-1.426;2023-04-26T13:34:25;75801.17;;;-216.35;38.99
50322;BME280;36227;53.366;-1.426;2023-04-26T13:36:51;75676.22;;;-216.35;37.31
50322;BME280;36227;53.366;-1.426;2023-04-26T13:39:16;75809.63;;;-216.11;37.43
50322;BME280;36227;53.366;-1.426;2023-04-26T13:41:41;75962.88;;;-215.39;40.47
50322;BME280;36227;53.366;-1.426;2023-04-26T13:44:06;75914.24;;;-215.39;39.52
50322;BME280;36227;53.366;-1.426;2023-04-26T13:46:32;75803.69;;;-216.11;38.40
50322;BME280;36227;53.366;-1.426;2023-04-26T13:48:57;75747.73;;;-215.87;37.02
50322;BME280;36227;53.366;-1.426;2023-04-26T13:51:23;75717.41;;;-216.83;36.48
50322;BME280;36227;53.366;-1.426;2023-04-26T13:53:49;75718.54;;;-216.83;36.75
50322;BME280;36227;53.366;-1.426;2023-04-26T13:56:14;75768.70;;;-216.35;37.10
50322;BME280;36227;53.366;-1.426;2023-04-26T13:58:42;75665.86;;;-216.83;36.44
50322;BME280;36227;53.366;-1.426;2023-04-26T14:01:05;75566.95;;;-216.83;35.17
50322;BME280;36227;53.366;-1.426;2023-04-26T14:03:30;75579.96;;;-216.83;35.52
50322;BME280;36227;53.366;-1.426;2023-04-26T14:05:55;75824.03;;;-216.35;38.13
50322;BME280;36227;53.366;-1.426;2023-04-26T14:08:21;75704.02;;;-216.83;37.67
50322;BME280;36227;53.366;-1.426;2023-04-26T14:10:46;75544.08;;;-216.83;35.90
50322;BME280;36227;53.366;-1.426;2023-04-26T14:13:12;75557.60;;;-217.30;35.37
50322;BME280;36227;53.366;-1.426;2023-04-26T14:15:37;75683.68;;;-217.07;36.49
50322;BME280;36227;53.366;-1.426;2023-04-26T14:18:02;75857.01;;;-215.87;39.00
50322;BME280;36227;53.366;-1.426;2023-04-26T14:20:27;75900.09;;;-215.39;41.42
50322;BME280;36227;53.366;-1.426;2023-04-26T14:22:52;75830.10;;;-216.11;40.85
50322;BME280;36227;53.366;-1.426;2023-04-26T14:25:18;75746.84;;;-216.35;40.07
50322;BME280;36227;53.366;-1.426;2023-04-26T14:27:43;75734.71;;;-215.87;39.53
50322;BME280;36227;53.366;-1.426;2023-04-26T14:30:09;75768.07;;;-216.11;39.58
50322;BME280;36227;53.366;-1.426;2023-04-26T14:32:34;75703.51;;;-215.87;38.47
50322;BME280;36227;53.366;-1.426;2023-04-26T14:35:01;75764.40;;;-216.83;38.13
50322;BME280;36227;53.366;-1.426;2023-04-26T14:37:26;75603.96;;;-217.30;37.71
50322;BME280;36227;53.366;-1.426;2023-04-26T14:39:51;75588.30;;;-216.83;36.86
50322;BME280;36227;53.366;-1.426;2023-04-26T14:42:17;75583.50;;;-216.83;37.64
50322;BME280;36227;53.366;-1.426;2023-04-26T14:44:41;75598.53;;;-216.35;37.28
50322;BME280;36227;53.366;-1.426;2023-04-26T14:47:06;75674.71;;;-216.35;37.29
50322;BME280;36227;53.366;-1.426;2023-04-26T14:49:33;75625.82;;;-215.87;37.45
50322;BME280;36227;53.366;-1.426;2023-04-26T14:51:58;75598.66;;;-216.11;36.74
50322;BME280;36227;53.366;-1.426;2023-04-26T14:54:24;75756.70;;;-216.11;38.30
50322;BME280;36227;53.366;-1.426;2023-04-26T14:56:50;75648.18;;;-216.59;36.83
50322;BME280;36227;53.366;-1.426;2023-04-26T14:59:15;75623.54;;;-216.83;38.09
50322;BME280;36227;53.366;-1.426;2023-04-26T15:01:41;75604.34;;;-216.35;36.50
50322;BME280;36227;53.366;-1.426;2023-04-26T15:04:06;75802.05;;;-215.63;38.22
50322;BME280;36227;53.366;-1.426;2023-04-26T15:06:32;75828.71;;;-215.15;40.36
50322;BME280;36227;53.366;-1.426;2023-04-26T15:08:57;75820.87;;;-215.39;39.86
50322;BME280;36227;53.366;-1.426;2023-04-26T15:11:23;75757.58;;;-215.39;39.09
50322;BME280;36227;53.366;-1.426;2023-04-26T15:13:48;75825.42;;;-215.15;38.30
50322;BME280;36227;53.366;-1.426;2023-04-26T15:16:13;75902.61;;;-214.91;40.69
50322;BME280;36227;53.366;-1.426;2023-04-26T15:18:39;75843.49;;;-215.87;40.24
50322;BME280;36227;53.366;-1.426;2023-04-26T15:21:04;75755.18;;;-215.87;38.26
50322;BME280;36227;53.366;-1.426;2023-04-26T15:23:30;75764.28;;;-215.39;39.52
50322;BME280;36227;53.366;-1.426;2023-04-26T15:26:01;75703.64;;;-215.87;38.55
50322;BME280;36227;53.366;-1.426;2023-04-26T15:28:21;75616.85;;;-216.11;36.54
50322;BME280;36227;53.366;-1.426;2023-04-26T15:30:46;75574.02;;;-216.11;35.15
50322;BME280;36227;53.366;-1.426;2023-04-26T15:33:11;75528.80;;;-216.35;35.98
50322;BME280;36227;53.366;-1.426;2023-04-26T15:35:37;75570.61;;;-216.11;35.52
50322;BME280;36227;53.366;-1.426;2023-04-26T15:38:02;75803.57;;;-215.15;38.32
50322;BME280;36227;53.366;-1.426;2023-04-26T15:40:27;75767.31;;;-216.11;38.17
50322;BME280;36227;53.366;-1.426;2023-04-26T15:42:52;75747.09;;;-216.11;39.57
50322;BME280;36227;53.366;-1.426;2023-04-26T15:45:17;75542.44;;;-216.35;35.66
50322;BME280;36227;53.366;-1.426;2023-04-26T15:47:42;75484.08;;;-216.59;35.47
50322;BME280;36227;53.366;-1.426;2023-04-26T15:50:09;75474.73;;;-216.59;34.37
50322;BME280;36227;53.366;-1.426;2023-04-26T15:52:34;75739.89;;;-215.39;36.46
50322;BME280;36227;53.366;-1.426;2023-04-26T15:54:58;75787.39;;;-215.39;38.49
50322;BME280;36227;53.366;-1.426;2023-04-26T15:57:24;75756.57;;;-215.39;37.98
50322;BME280;36227;53.366;-1.426;2023-04-26T15:59:51;75722.46;;;-215.87;38.92
50322;BME280;36227;53.366;-1.426;2023-04-26T16:02:15;75765.67;;;-215.87;39.38
50322;BME280;36227;53.366;-1.426;2023-04-26T16:04:40;75742.04;;;-216.11;38.34
50322;BME280;36227;53.366;-1.426;2023-04-26T16:07:06;75709.45;;;-216.11;37.86
50322;BME280;36227;53.366;-1.426;2023-04-26T16:09:31;75675.84;;;-216.11;36.74
50322;BME280;36227;53.366;-1.426;2023-04-26T16:11:56;75961.36;;;-214.67;42.10
50322;BME280;36227;53.366;-1.426;2023-04-26T16:14:21;75831.99;;;-215.15;42.08
50322;BME280;36227;53.366;-1.426;2023-04-26T16:16:47;75740.53;;;-215.87;39.02
50322;BME280;36227;53.366;-1.426;2023-04-26T16:19:13;75669.40;;;-216.11;37.55
50322;BME280;36227;53.366;-1.426;2023-04-26T16:21:38;75587.29;;;-216.35;36.34
50322;BME280;36227;53.366;-1.426;2023-04-26T16:24:04;75544.59;;;-216.83;36.87
50322;BME280;36227;53.366;-1.426;2023-04-26T16:26:29;75576.17;;;-216.59;37.21
50322;BME280;36227;53.366;-1.426;2023-04-26T16:28:55;75592.72;;;-216.35;37.20
50322;BME280;36227;53.366;-1.426;2023-04-26T16:31:21;75581.98;;;-216.35;36.46
50322;BME280;36227;53.366;-1.426;2023-04-26T16:33:45;75631.50;;;-216.83;36.45
50322;BME280;36227;53.366;-1.426;2023-04-26T16:36:11;75578.19;;;-216.35;36.75
50322;BME280;36227;53.366;-1.426;2023-04-26T16:38:35;75537.51;;;-216.35;35.95
50322;BME280;36227;53.366;-1.426;2023-04-26T16:41:10;75491.78;;;-216.83;35.93
50322;BME280;36227;53.366;-1.426;2023-04-26T16:43:28;75524.12;;;-216.59;34.86
50322;BME280;36227;53.366;-1.426;2023-04-26T16:45:58;75616.47;;;-216.83;34.77
50322;BME280;36227;53.366;-1.426;2023-04-26T16:48:18;75586.78;;;-216.83;36.18
50322;BME280;36227;53.366;-1.426;2023-04-26T16:50:43;75573.39;;;-216.35;35.66
50322;BME280;36227;53.366;-1.426;2023-04-26T16:53:09;75480.92;;;-216.83;35.16
50322;BME280;36227;53.366;-1.426;2023-04-26T16:55:34;75514.78;;;-216.35;35.52
50322;BME280;36227;53.366;-1.426;2023-04-26T16:58:00;75525.39;;;-216.59;35.31
50322;BME280;36227;53.366;-1.426;2023-04-26T17:00:25;75588.42;;;-216.35;35.78
50322;BME280;36227;53.366;-1.426;2023-04-26T17:02:51;75533.85;;;-216.35;35.33
50322;BME280;36227;53.366;-1.426;2023-04-26T17:05:16;75520.08;;;-216.35;35.80
50322;BME280;36227;53.366;-1.426;2023-04-26T17:07:42;75541.94;;;-217.30;35.65
50322;BME280;36227;53.366;-1.426;2023-04-26T17:10:08;75528.67;;;-217.30;35.30
50322;BME280;36227;53.366;-1.426;2023-04-26T17:12:33;75637.06;;;-216.59;36.37
50322;BME280;36227;53.366;-1.426;2023-04-26T17:14:58;75560.76;;;-216.59;36.59
50322;BME280;36227;53.366;-1.426;2023-04-26T17:17:23;75553.43;;;-216.35;35.85
50322;BME280;36227;53.366;-1.426;2023-04-26T17:19:49;75594.36;;;-216.35;36.28
50322;BME280;36227;53.366;-1.426;2023-04-26T17:22:15;75604.34;;;-216.11;36.20
50322;BME280;36227;53.366;-1.426;2023-04-26T17:24:40;75699.34;;;-216.35;37.15
50322;BME280;36227;53.366;-1.426;2023-04-26T17:27:06;75583.88;;;-216.35;36.71
50322;BME280;36227;53.366;-1.426;2023-04-26T17:29:31;75569.35;;;-216.83;36.18
50322;BME280;36227;53.366;-1.426;2023-04-26T17:31:56;75606.49;;;-216.59;36.16
50322;BME280;36227;53.366;-1.426;2023-04-26T17:34:22;75585.27;;;-216.83;36.43
50322;BME280;36227;53.366;-1.426;2023-04-26T17:36:47;75637.94;;;-216.59;36.73
50322;BME280;36227;53.366;-1.426;2023-04-26T17:39:12;75589.56;;;-216.59;36.71
50322;BME280;36227;53.366;-1.426;2023-04-26T17:41:38;75614.32;;;-216.35;36.67
50322;BME280;36227;53.366;-1.426;2023-04-26T17:44:03;75611.79;;;-216.35;35.97
50322;BME280;36227;53.366;-1.426;2023-04-26T17:46:28;75573.01;;;-216.35;36.30
50322;BME280;36227;53.366;-1.426;2023-04-26T17:48:53;75521.72;;;-216.59;35.79
50322;BME280;36227;53.366;-1.426;2023-04-26T17:51:19;75525.51;;;-217.30;36.23
50322;BME280;36227;53.366;-1.426;2023-04-26T17:53:44;75484.33;;;-217.07;36.15
50322;BME280;36227;53.366;-1.426;2023-04-26T17:56:09;75480.79;;;-216.83;35.35
50322;BME280;36227;53.366;-1.426;2023-04-26T17:58:34;75544.46;;;-216.59;36.24
50322;BME280;36227;53.366;-1.426;2023-04-26T18:01:00;75547.75;;;-216.35;36.83
50322;BME280;36227;53.366;-1.426;2023-04-26T18:03:25;75602.07;;;-216.35;37.83
50322;BME280;36227;53.366;-1.426;2023-04-26T18:05:51;75628.60;;;-216.11;37.52
50322;BME280;36227;53.366;-1.426;2023-04-26T18:08:18;75654.62;;;-216.11;38.18
50322;BME280;36227;53.366;-1.426;2023-04-26T18:10:42;75699.72;;;-216.11;39.25